Zoersel, Belgium
Current Conditions -  °F | °C
As of 2:20 PM on Tuesday 21 Oct 2014 (Local Time) from EBAW Reporting Station
Moderate Rain Moderate Rain  
Wind Chill: 55°   Ceiling: 2000
Heat Index: 55°   Visibility: 1.8mi
Dew Point: 52°   Wind: 14mph
Humidity: 88%   Direction: 230°SW
Pressure: 29.53"   Gusts: NA
Location:  51.27°N, 4.71°E
Report Text: EBAW 211220Z 23012KT 200V260 3000 RA BR FEW012 BKN020 13/11 Q1000 TEMPO 21015G30KT
Loading
Personal Weather Stations






























Interactive Weather Map
Tropical Storm Tracking
New forecast layout! Learn more

10-Day Weather Forecast

Advertisements
Track Severe Weather on mobile